Time;durP1;ratioP1;P1;durP2;ratioP2;P2;SDS_P1;SDS_P2;PMS_P1;PMS_P2;Temp;Humidity;BMP_temperature;BMP_pressure;BME280_temperature;BME280_humidity;BME280_pressure;Samples;Min_cycle;Max_cycle;Signal;HPM_P1;HPM_P2
2024/01/12 00:00:35;;;;;;;18.70;10.38;;;;;;;;;;4983174;28;20102;-47
2024/01/12 00:03:02;;;;;;;15.68;9.02;;;;;;;;;;4983165;28;20105;-46
2024/01/12 00:05:28;;;;;;;18.83;11.82;;;;;;;;;;4993449;28;20026;-47
2024/01/12 00:07:53;;;;;;;20.17;10.10;;;;;;;;;;4986229;28;20114;-44
2024/01/12 00:10:19;;;;;;;17.30;8.93;;;;;;;;;;4987825;28;20114;-49
2024/01/12 00:12:45;;;;;;;15.90;9.55;;;;;;;;;;4984336;28;20030;-49
2024/01/12 00:15:10;;;;;;;20.15;9.75;;;;;;;;;;4986402;28;20044;-49
2024/01/12 00:17:35;;;;;;;20.55;9.90;;;;;;;;;;4985196;28;20023;-48
2024/01/12 00:20:02;;;;;;;16.17;8.43;;;;;;;;;;4994584;28;20492;-48
2024/01/12 00:22:27;;;;;;;20.00;12.80;;;;;;;;;;4986282;28;20109;-44
2024/01/12 00:24:53;;;;;;;16.95;10.25;;;;;;;;;;4988189;28;20088;-47
2024/01/12 00:27:18;;;;;;;16.83;8.32;;;;;;;;;;4991534;28;20019;-44
2024/01/12 00:29:43;;;;;;;20.73;10.02;;;;;;;;;;4988429;28;20031;-47
2024/01/12 00:32:09;;;;;;;18.67;9.90;;;;;;;;;;4992121;28;20023;-47
2024/01/12 00:34:34;;;;;;;19.30;10.25;;;;;;;;;;4985743;28;20054;-47
2024/01/12 00:37:00;;;;;;;18.10;9.18;;;;;;;;;;4998896;28;20029;-46
2024/01/12 00:39:26;;;;;;;16.58;9.40;;;;;;;;;;4998836;28;20037;-48
2024/01/12 00:41:52;;;;;;;16.90;10.32;;;;;;;;;;4990233;28;20027;-47
2024/01/12 00:44:18;;;;;;;14.20;9.40;;;;;;;;;;4980127;28;20043;-46
2024/01/12 00:46:44;;;;;;;16.00;8.93;;;;;;;;;;4987750;28;20082;-45
2024/01/12 00:49:10;;;;;;;17.08;9.85;;;;;;;;;;4991953;28;20052;-48
2024/01/12 00:51:36;;;;;;;15.18;9.35;;;;;;;;;;4984000;28;20500;-43
2024/01/12 00:54:02;;;;;;;13.90;7.97;;;;;;;;;;4985989;28;20112;-46
2024/01/12 00:56:27;;;;;;;15.30;9.07;;;;;;;;;;4987899;28;20022;-47
2024/01/12 00:58:53;;;;;;;13.27;7.80;;;;;;;;;;4993055;28;20038;-48
2024/01/12 01:01:18;;;;;;;16.27;9.32;;;;;;;;;;4992860;28;20027;-46
2024/01/12 01:03:44;;;;;;;17.63;9.32;;;;;;;;;;4989223;28;20133;-47
2024/01/12 01:06:09;;;;;;;16.05;9.35;;;;;;;;;;4988640;28;20050;-45
2024/01/12 01:08:35;;;;;;;16.42;7.88;;;;;;;;;;4995386;28;20038;-45
2024/01/12 01:11:00;;;;;;;15.80;7.70;;;;;;;;;;4996351;28;20014;-46
2024/01/12 01:13:26;;;;;;;15.15;9.00;;;;;;;;;;4990095;28;20043;-44
2024/01/12 01:15:51;;;;;;;14.07;10.35;;;;;;;;;;4987440;28;20769;-46
2024/01/12 01:18:17;;;;;;;13.68;8.32;;;;;;;;;;4986612;28;20022;-47
2024/01/12 01:20:43;;;;;;;13.38;8.30;;;;;;;;;;4995946;28;20027;-46
2024/01/12 01:23:09;;;;;;;14.10;10.18;;;;;;;;;;4991616;28;20393;-47
2024/01/12 01:25:36;;;;;;;11.50;6.72;;;;;;;;;;4985574;28;20034;-48
2024/01/12 01:28:02;;;;;;;18.75;8.20;;;;;;;;;;4984091;28;20054;-48
2024/01/12 01:30:28;;;;;;;14.90;8.02;;;;;;;;;;4993811;28;20022;-46
2024/01/12 01:32:53;;;;;;;17.48;9.43;;;;;;;;;;4988971;28;20022;-45
2024/01/12 01:35:19;;;;;;;15.93;8.65;;;;;;;;;;4958699;28;20030;-49
2024/01/12 01:37:44;;;;;;;13.73;9.65;;;;;;;;;;4994071;28;20381;-46
2024/01/12 01:40:10;;;;;;;13.40;7.55;;;;;;;;;;4991879;28;20042;-44
2024/01/12 01:42:35;;;;;;;12.45;7.95;;;;;;;;;;4988536;28;20572;-46
2024/01/12 01:45:02;;;;;;;13.80;8.30;;;;;;;;;;4987948;28;20523;-47
2024/01/12 01:47:27;;;;;;;12.82;7.80;;;;;;;;;;4988336;28;20027;-46
2024/01/12 01:49:53;;;;;;;15.27;9.50;;;;;;;;;;4987698;28;20390;-50
2024/01/12 01:52:21;;;;;;;12.35;7.07;;;;;;;;;;4974315;28;20050;-45
2024/01/12 01:54:47;;;;;;;11.32;7.45;;;;;;;;;;4988839;28;20045;-49
2024/01/12 01:57:13;;;;;;;12.38;7.13;;;;;;;;;;4987976;28;20039;-47
2024/01/12 01:59:39;;;;;;;13.55;7.57;;;;;;;;;;4988701;28;20034;-43
2024/01/12 02:02:05;;;;;;;13.13;7.32;;;;;;;;;;4985978;28;20073;-47
2024/01/12 02:04:31;;;;;;;13.90;7.32;;;;;;;;;;4992013;28;20721;-48
2024/01/12 02:06:56;;;;;;;11.95;6.78;;;;;;;;;;4981525;28;20489;-45
2024/01/12 02:09:22;;;;;;;11.93;6.53;;;;;;;;;;4987413;28;20065;-46
2024/01/12 02:11:47;;;;;;;12.43;7.07;;;;;;;;;;4994410;28;20026;-45
2024/01/12 02:14:13;;;;;;;13.85;8.13;;;;;;;;;;4994999;28;20091;-46
2024/01/12 02:16:39;;;;;;;9.20;5.95;;;;;;;;;;4988590;28;20034;-46
2024/01/12 02:19:04;;;;;;;16.00;8.38;;;;;;;;;;4981631;28;20043;-45
2024/01/12 02:21:29;;;;;;;11.43;6.93;;;;;;;;;;4981647;28;20022;-45
2024/01/12 02:23:55;;;;;;;15.68;7.60;;;;;;;;;;4985025;28;20034;-45
2024/01/12 02:26:20;;;;;;;12.65;6.95;;;;;;;;;;4987441;28;20018;-48
2024/01/12 02:28:47;;;;;;;13.10;7.65;;;;;;;;;;5002732;28;20451;-47
2024/01/12 02:31:13;;;;;;;11.10;7.28;;;;;;;;;;5000540;28;20034;-47
2024/01/12 02:33:38;;;;;;;13.55;7.25;;;;;;;;;;4994332;28;20129;-45
2024/01/12 02:36:04;;;;;;;12.18;7.35;;;;;;;;;;4980967;28;20035;-46
2024/01/12 02:38:30;;;;;;;13.63;8.15;;;;;;;;;;4978548;28;20038;-46
2024/01/12 02:40:55;;;;;;;13.07;7.75;;;;;;;;;;4987568;28;20023;-48
2024/01/12 02:43:20;;;;;;;15.70;7.72;;;;;;;;;;4980808;28;20089;-47
2024/01/12 02:45:46;;;;;;;14.48;7.85;;;;;;;;;;4994487;28;20109;-45
2024/01/12 02:48:11;;;;;;;14.15;7.57;;;;;;;;;;4983675;28;20033;-43
2024/01/12 02:50:37;;;;;;;12.38;6.95;;;;;;;;;;4992849;28;20034;-46
2024/01/12 02:53:02;;;;;;;10.95;6.88;;;;;;;;;;4982834;28;20133;-48
2024/01/12 02:55:28;;;;;;;12.82;7.25;;;;;;;;;;4990273;28;20042;-49
2024/01/12 02:57:53;;;;;;;13.43;7.30;;;;;;;;;;4986531;28;20117;-46
2024/01/12 03:00:19;;;;;;;16.67;9.10;;;;;;;;;;4982532;28;20034;-47
2024/01/12 03:02:44;;;;;;;14.32;8.48;;;;;;;;;;4986603;28;20030;-44
2024/01/12 03:05:09;;;;;;;13.85;8.57;;;;;;;;;;4986098;28;20058;-44
2024/01/12 03:07:37;;;;;;;16.80;7.50;;;;;;;;;;4988534;28;20112;-48
2024/01/12 03:10:03;;;;;;;16.15;8.48;;;;;;;;;;4990650;28;20069;-44
2024/01/12 03:12:28;;;;;;;13.95;8.63;;;;;;;;;;4994374;28;20033;-49
2024/01/12 03:14:54;;;;;;;16.15;8.57;;;;;;;;;;4991460;28;20484;-50
2024/01/12 03:17:20;;;;;;;15.77;9.45;;;;;;;;;;4984634;28;20026;-46
2024/01/12 03:19:45;;;;;;;13.88;7.90;;;;;;;;;;4991452;28;20038;-45
2024/01/12 03:22:11;;;;;;;12.98;7.63;;;;;;;;;;4984225;28;20034;-45
2024/01/12 03:24:36;;;;;;;15.95;7.90;;;;;;;;;;4964969;28;20043;-47
2024/01/12 03:27:02;;;;;;;14.18;7.30;;;;;;;;;;4986591;28;20031;-48
2024/01/12 03:29:27;;;;;;;11.75;6.60;;;;;;;;;;4974014;28;20134;-44
2024/01/12 03:31:52;;;;;;;11.75;7.05;;;;;;;;;;4993400;28;20083;-47
2024/01/12 03:34:18;;;;;;;10.90;5.70;;;;;;;;;;4985528;28;20046;-46
2024/01/12 03:36:43;;;;;;;11.65;7.32;;;;;;;;;;4985879;28;20038;-50
2024/01/12 03:39:10;;;;;;;9.95;6.40;;;;;;;;;;4979502;28;20128;-48
2024/01/12 03:41:35;;;;;;;12.73;6.93;;;;;;;;;;4988797;28;20035;-45
2024/01/12 03:44:01;;;;;;;11.35;5.55;;;;;;;;;;4986650;28;20759;-46
2024/01/12 03:46:26;;;;;;;15.07;6.82;;;;;;;;;;4988787;28;20487;-48
2024/01/12 03:48:51;;;;;;;12.13;6.88;;;;;;;;;;4988410;28;20357;-45
2024/01/12 03:51:17;;;;;;;15.20;9.95;;;;;;;;;;4983258;28;20491;-50
2024/01/12 03:53:42;;;;;;;12.40;7.03;;;;;;;;;;4986156;28;20516;-44
2024/01/12 03:56:08;;;;;;;12.02;7.45;;;;;;;;;;4978073;28;20023;-44
2024/01/12 03:58:36;;;;;;;14.90;8.23;;;;;;;;;;4982857;28;20049;-47
2024/01/12 04:01:01;;;;;;;14.82;7.22;;;;;;;;;;4990854;28;20041;-48
2024/01/12 04:03:27;;;;;;;14.82;7.70;;;;;;;;;;4989175;28;20027;-47
2024/01/12 04:05:52;;;;;;;12.30;6.68;;;;;;;;;;4990673;28;20045;-49
2024/01/12 04:08:18;;;;;;;15.45;7.50;;;;;;;;;;4986001;28;20481;-48
2024/01/12 04:10:43;;;;;;;13.68;8.63;;;;;;;;;;4993162;28;20019;-44
2024/01/12 04:13:08;;;;;;;12.52;7.18;;;;;;;;;;4981753;28;20026;-47
2024/01/12 04:15:34;;;;;;;12.90;7.30;;;;;;;;;;4987420;28;20030;-46
2024/01/12 04:17:59;;;;;;;12.95;7.20;;;;;;;;;;4986312;28;20077;-42
2024/01/12 04:20:25;;;;;;;16.27;8.48;;;;;;;;;;4988232;28;20061;-46
2024/01/12 04:22:50;;;;;;;16.52;7.75;;;;;;;;;;4987685;28;20054;-46
2024/01/12 04:25:15;;;;;;;13.82;7.90;;;;;;;;;;4992967;28;20125;-49
2024/01/12 04:27:41;;;;;;;11.13;5.93;;;;;;;;;;4991133;28;20030;-47
2024/01/12 04:30:09;;;;;;;15.55;7.57;;;;;;;;;;4991702;28;20034;-48
2024/01/12 04:32:34;;;;;;;11.90;8.25;;;;;;;;;;4982993;28;20045;-49
2024/01/12 04:34:59;;;;;;;13.00;10.23;;;;;;;;;;4991758;28;20038;-45
2024/01/12 04:37:25;;;;;;;13.55;7.78;;;;;;;;;;4991273;28;20112;-46
2024/01/12 04:39:51;;;;;;;14.85;8.20;;;;;;;;;;4996224;28;20035;-45
2024/01/12 04:42:16;;;;;;;14.20;8.65;;;;;;;;;;4978853;28;20061;-45
2024/01/12 04:44:43;;;;;;;12.57;7.30;;;;;;;;;;4989415;28;20046;-45
2024/01/12 04:47:09;;;;;;;12.27;7.50;;;;;;;;;;4991145;28;20026;-47
2024/01/12 04:49:34;;;;;;;10.35;6.38;;;;;;;;;;4996247;28;20030;-49
2024/01/12 04:51:59;;;;;;;9.25;6.80;;;;;;;;;;4993662;28;20050;-46
2024/01/12 04:54:25;;;;;;;12.95;6.93;;;;;;;;;;4990411;28;20043;-49
2024/01/12 04:56:50;;;;;;;12.88;7.15;;;;;;;;;;4984263;28;20030;-49
2024/01/12 04:59:16;;;;;;;11.30;8.13;;;;;;;;;;4995556;28;20500;-46
2024/01/12 05:01:41;;;;;;;12.00;6.82;;;;;;;;;;4990248;28;20557;-44
2024/01/12 05:04:06;;;;;;;13.38;10.07;;;;;;;;;;4990978;28;20400;-45
2024/01/12 05:06:32;;;;;;;12.57;7.05;;;;;;;;;;4992251;28;20089;-52
2024/01/12 05:08:57;;;;;;;10.40;6.35;;;;;;;;;;4984500;28;20058;-48
2024/01/12 05:11:25;;;;;;;16.08;9.38;;;;;;;;;;4996360;28;20032;-48
2024/01/12 05:13:51;;;;;;;13.90;8.05;;;;;;;;;;4992767;28;20042;-44
2024/01/12 05:16:16;;;;;;;12.45;7.43;;;;;;;;;;4990208;28;20058;-49
2024/01/12 05:18:42;;;;;;;13.88;7.28;;;;;;;;;;4998535;28;20043;-46
2024/01/12 05:21:08;;;;;;;12.15;7.00;;;;;;;;;;4992900;28;20026;-48
2024/01/12 05:23:33;;;;;;;12.57;7.47;;;;;;;;;;4981556;28;20098;-48
2024/01/12 05:25:59;;;;;;;8.40;5.97;;;;;;;;;;4977980;28;20121;-45
2024/01/12 05:28:24;;;;;;;10.98;6.68;;;;;;;;;;4984508;28;20055;-44
2024/01/12 05:30:49;;;;;;;9.18;6.22;;;;;;;;;;4993676;28;20038;-44
2024/01/12 05:33:15;;;;;;;12.65;6.72;;;;;;;;;;4989493;28;20611;-45
2024/01/12 05:35:41;;;;;;;12.40;6.22;;;;;;;;;;4993394;28;20035;-48
2024/01/12 05:38:06;;;;;;;11.52;6.15;;;;;;;;;;4994139;28;20077;-44
2024/01/12 05:40:32;;;;;;;10.55;5.90;;;;;;;;;;4983998;28;20031;-46
2024/01/12 05:42:57;;;;;;;11.60;6.50;;;;;;;;;;4987395;28;20083;-46
2024/01/12 05:45:23;;;;;;;9.52;5.32;;;;;;;;;;4987275;28;20034;-48
2024/01/12 05:47:48;;;;;;;8.88;6.05;;;;;;;;;;4982048;28;20034;-47
2024/01/12 05:50:13;;;;;;;10.77;5.70;;;;;;;;;;4983692;28;20042;-46
2024/01/12 05:52:39;;;;;;;10.65;5.28;;;;;;;;;;4967362;28;20050;-47
2024/01/12 05:55:05;;;;;;;9.20;5.38;;;;;;;;;;4988195;28;20121;-45
2024/01/12 05:57:31;;;;;;;9.90;5.75;;;;;;;;;;4979239;28;20022;-44
2024/01/12 05:59:57;;;;;;;10.07;6.40;;;;;;;;;;4984681;28;20037;-44
2024/01/12 06:02:22;;;;;;;9.77;6.95;;;;;;;;;;4990963;28;20026;-48
2024/01/12 06:04:47;;;;;;;10.18;6.38;;;;;;;;;;4981210;28;20081;-46
2024/01/12 06:07:13;;;;;;;9.52;5.70;;;;;;;;;;4989257;28;20048;-44
2024/01/12 06:09:40;;;;;;;8.77;5.28;;;;;;;;;;4982135;28;20527;-46
2024/01/12 06:12:06;;;;;;;10.85;5.57;;;;;;;;;;4983167;28;20022;-46
2024/01/12 06:14:31;;;;;;;9.45;6.20;;;;;;;;;;4989891;28;20030;-45
2024/01/12 06:16:56;;;;;;;10.75;6.13;;;;;;;;;;4989296;28;20065;-46
2024/01/12 06:19:23;;;;;;;11.43;6.18;;;;;;;;;;4982738;28;20045;-48
2024/01/12 06:21:49;;;;;;;8.70;5.57;;;;;;;;;;4991079;28;20472;-46
2024/01/12 06:24:14;;;;;;;8.05;6.00;;;;;;;;;;4990305;28;20096;-44
2024/01/12 06:26:43;;;;;;;10.07;5.47;;;;;;;;;;4986112;28;20057;-47
2024/01/12 06:29:08;;;;;;;10.40;5.63;;;;;;;;;;4982531;28;20039;-46
2024/01/12 06:31:34;;;;;;;9.18;5.35;;;;;;;;;;4985887;28;20026;-48
2024/01/12 06:33:59;;;;;;;10.25;5.63;;;;;;;;;;4981970;28;20038;-50
2024/01/12 06:36:25;;;;;;;8.60;5.97;;;;;;;;;;4972540;28;20026;-47
2024/01/12 06:38:50;;;;;;;10.80;5.95;;;;;;;;;;4980910;28;20050;-47
2024/01/12 06:41:15;;;;;;;8.40;5.53;;;;;;;;;;4981623;28;20042;-45
2024/01/12 06:43:41;;;;;;;11.48;6.57;;;;;;;;;;4983485;28;20053;-49
2024/01/12 06:46:06;;;;;;;20.02;10.65;;;;;;;;;;4986589;28;20027;-49
2024/01/12 06:48:32;;;;;;;24.25;11.88;;;;;;;;;;4989399;28;20058;-46
2024/01/12 06:50:57;;;;;;;10.95;8.20;;;;;;;;;;4989842;28;20030;-48
2024/01/12 06:53:23;;;;;;;12.30;7.10;;;;;;;;;;4985850;28;20091;-45
2024/01/12 06:55:48;;;;;;;12.15;7.18;;;;;;;;;;4988248;28;20033;-48
2024/01/12 06:58:14;;;;;;;11.52;10.10;;;;;;;;;;4991271;28;20369;-46
2024/01/12 07:00:39;;;;;;;8.98;7.03;;;;;;;;;;4991768;28;20484;-45
2024/01/12 07:03:06;;;;;;;9.15;7.57;;;;;;;;;;4980488;28;20381;-45
2024/01/12 07:05:31;;;;;;;8.65;5.93;;;;;;;;;;4984550;28;20023;-46
2024/01/12 07:07:57;;;;;;;10.65;6.93;;;;;;;;;;4983081;28;20379;-50
2024/01/12 07:10:22;;;;;;;8.25;5.05;;;;;;;;;;4981742;28;20070;-47
2024/01/12 07:12:51;;;;;;;9.98;5.05;;;;;;;;;;4981981;28;20045;-46
2024/01/12 07:15:17;;;;;;;;;;;;;;;;;;4980145;28;20035;-47
2024/01/12 07:17:43;;;;;;;9.07;4.90;;;;;;;;;;4983130;28;19991;-47
2024/01/12 07:20:10;;;;;;;7.22;5.63;;;;;;;;;;4980259;28;20053;-46
2024/01/12 07:22:36;;;;;;;10.23;6.57;;;;;;;;;;4981927;28;22031;-47
2024/01/12 07:25:01;;;;;;;13.98;7.95;;;;;;;;;;4988418;28;20043;-46
2024/01/12 07:27:26;;;;;;;14.30;6.78;;;;;;;;;;4988175;28;20119;-47
2024/01/12 07:29:52;;;;;;;9.30;5.35;;;;;;;;;;4983712;28;20580;-47
2024/01/12 07:32:17;;;;;;;16.63;8.98;;;;;;;;;;4998051;28;20125;-48
2024/01/12 07:34:42;;;;;;;16.17;9.60;;;;;;;;;;4983175;28;20405;-46
2024/01/12 07:37:08;;;;;;;15.90;8.82;;;;;;;;;;4979512;28;20484;-45
2024/01/12 07:39:33;;;;;;;13.60;7.10;;;;;;;;;;4977949;28;20047;-49
2024/01/12 07:41:58;;;;;;;11.88;7.45;;;;;;;;;;4980578;28;20030;-46
2024/01/12 07:44:24;;;;;;;16.90;11.13;;;;;;;;;;4987451;28;20042;-45
2024/01/12 07:46:49;;;;;;;20.02;10.32;;;;;;;;;;4978416;28;20031;-49
2024/01/12 07:49:15;;;;;;;10.45;6.28;;;;;;;;;;4995366;28;20097;-45
2024/01/12 07:51:41;;;;;;;12.25;6.45;;;;;;;;;;4997082;28;20062;-51
2024/01/12 07:55:26;;;;;;;22.05;14.02;;;;;;;;;;4992261;28;20631;-51
2024/01/12 07:57:52;;;;;;;15.80;10.35;;;;;;;;;;4996851;28;20456;-46
2024/01/12 08:00:17;;;;;;;13.77;9.05;;;;;;;;;;4994557;28;20047;-47
2024/01/12 08:02:43;;;;;;;36.17;18.42;;;;;;;;;;5004269;28;20049;-50
2024/01/12 08:05:08;;;;;;;33.85;18.13;;;;;;;;;;4994215;28;20444;-47
2024/01/12 08:07:35;;;;;;;13.18;8.75;;;;;;;;;;4999448;28;20499;-48
2024/01/12 08:10:00;;;;;;;17.85;11.77;;;;;;;;;;5003428;28;20042;-46
2024/01/12 08:12:26;;;;;;;17.60;14.85;;;;;;;;;;5008087;28;20027;-48
2024/01/12 08:14:51;;;;;;;18.13;10.52;;;;;;;;;;4992850;28;20039;-50
2024/01/12 08:17:16;;;;;;;16.58;11.18;;;;;;;;;;4994939;28;20038;-48
2024/01/12 08:19:42;;;;;;;15.30;8.95;;;;;;;;;;4993630;28;20121;-47
2024/01/12 08:22:07;;;;;;;13.30;7.25;;;;;;;;;;4994282;28;20018;-47
2024/01/12 08:24:33;;;;;;;13.43;8.43;;;;;;;;;;5010604;28;20042;-48
2024/01/12 08:26:58;;;;;;;15.35;10.05;;;;;;;;;;5016892;28;20033;-46
2024/01/12 08:29:23;;;;;;;27.40;15.45;;;;;;;;;;4985327;28;20058;-50
2024/01/12 08:31:51;;;;;;;14.40;10.15;;;;;;;;;;5004876;28;20102;-48
2024/01/12 08:34:17;;;;;;;22.48;13.77;;;;;;;;;;4992260;28;20034;-46
2024/01/12 08:36:42;;;;;;;12.85;8.68;;;;;;;;;;4995188;28;20436;-45
2024/01/12 08:39:07;;;;;;;12.63;8.25;;;;;;;;;;5019280;28;20497;-47
2024/01/12 08:41:33;;;;;;;16.25;10.38;;;;;;;;;;4991861;28;20023;-45
2024/01/12 08:43:58;;;;;;;13.40;8.32;;;;;;;;;;4990477;28;20101;-46
2024/01/12 08:46:24;;;;;;;14.90;9.50;;;;;;;;;;4993898;28;20036;-46
2024/01/12 08:48:49;;;;;;;12.73;9.10;;;;;;;;;;4991279;28;20041;-46
2024/01/12 08:51:15;;;;;;;15.45;12.30;;;;;;;;;;4990876;28;20048;-49
2024/01/12 08:53:41;;;;;;;11.98;8.38;;;;;;;;;;4993988;28;20074;-47
2024/01/12 08:56:07;;;;;;;14.35;9.90;;;;;;;;;;4992163;28;20066;-49
2024/01/12 08:58:33;;;;;;;9.23;6.85;;;;;;;;;;4989532;28;20043;-51
2024/01/12 09:00:59;;;;;;;13.98;8.13;;;;;;;;;;4993034;28;20037;-48
2024/01/12 09:03:24;;;;;;;11.85;8.05;;;;;;;;;;4972610;28;20393;-47
2024/01/12 09:05:49;;;;;;;13.23;7.68;;;;;;;;;;4997077;28;20030;-45
2024/01/12 09:08:15;;;;;;;10.88;7.10;;;;;;;;;;4983653;28;20058;-47
2024/01/12 09:10:40;;;;;;;10.05;7.28;;;;;;;;;;4993996;28;20473;-49
2024/01/12 09:13:06;;;;;;;9.93;7.45;;;;;;;;;;4972842;28;20117;-45
2024/01/12 09:15:31;;;;;;;11.60;7.38;;;;;;;;;;4991893;28;20022;-49
2024/01/12 09:17:56;;;;;;;12.95;6.70;;;;;;;;;;5002229;28;20022;-46
2024/01/12 09:20:22;;;;;;;10.25;6.47;;;;;;;;;;4983579;28;20030;-46
2024/01/12 09:22:48;;;;;;;10.68;6.10;;;;;;;;;;4977145;28;20480;-46
2024/01/12 09:25:13;;;;;;;10.43;5.72;;;;;;;;;;4975400;28;20045;-46
2024/01/12 09:27:38;;;;;;;10.18;5.78;;;;;;;;;;4986612;28;20032;-48
2024/01/12 09:30:05;;;;;;;9.55;6.38;;;;;;;;;;4985483;28;20093;-45
2024/01/12 09:32:30;;;;;;;13.30;6.18;;;;;;;;;;4962857;28;20404;-49
2024/01/12 09:34:55;;;;;;;7.07;5.15;;;;;;;;;;4976937;28;20042;-46
2024/01/12 09:37:21;;;;;;;13.30;8.68;;;;;;;;;;4980703;28;20128;-47
2024/01/12 09:39:47;;;;;;;10.45;5.70;;;;;;;;;;4977596;28;20042;-46
2024/01/12 09:42:14;;;;;;;15.90;8.15;;;;;;;;;;4983682;28;20724;-50
2024/01/12 09:44:45;;;;;;;13.63;8.50;;;;;;;;;;4992148;28;20061;-49
2024/01/12 09:47:12;;;;;;;12.05;9.50;;;;;;;;;;4989308;28;20026;-46
2024/01/12 09:49:37;;;;;;;14.18;10.05;;;;;;;;;;4990209;28;20038;-48
2024/01/12 09:52:04;;;;;;;15.43;9.68;;;;;;;;;;4976810;28;20217;-48
2024/01/12 09:54:29;;;;;;;13.80;9.70;;;;;;;;;;4977947;28;20517;-46
2024/01/12 09:56:56;;;;;;;16.33;10.27;;;;;;;;;;4971410;28;20496;-49
2024/01/12 09:59:22;;;;;;;15.18;10.23;;;;;;;;;;4974651;28;20062;-46
2024/01/12 10:01:48;;;;;;;13.60;7.50;;;;;;;;;;4971863;28;20027;-47
2024/01/12 10:04:14;;;;;;;14.38;9.70;;;;;;;;;;4979496;28;20042;-48
2024/01/12 10:06:39;;;;;;;14.98;10.15;;;;;;;;;;4980860;28;20026;-47
2024/01/12 10:09:06;;;;;;;12.85;8.73;;;;;;;;;;4990907;28;20038;-47
2024/01/12 10:11:31;;;;;;;15.73;11.07;;;;;;;;;;5008757;28;20048;-49
2024/01/12 10:13:57;;;;;;;12.00;8.60;;;;;;;;;;4989448;28;20035;-51
2024/01/12 10:16:28;;;;;;;14.75;9.70;;;;;;;;;;4978025;28;20082;-47
2024/01/12 10:18:54;;;;;;;14.00;10.07;;;;;;;;;;4989131;28;20030;-48
2024/01/12 10:21:20;;;;;;;14.48;9.40;;;;;;;;;;4987449;28;20672;-49
2024/01/12 10:23:45;;;;;;;18.65;12.27;;;;;;;;;;4978309;28;20055;-48
2024/01/12 10:26:15;;;;;;;18.45;13.65;;;;;;;;;;4981367;28;20026;-51
2024/01/12 10:28:41;;;;;;;13.15;8.95;;;;;;;;;;4973761;28;20117;-50
2024/01/12 10:31:07;;;;;;;14.00;8.93;;;;;;;;;;4976034;28;20110;-46
2024/01/12 10:33:33;;;;;;;15.73;9.75;;;;;;;;;;4977661;28;20106;-50
2024/01/12 10:36:10;;;;;;;16.33;12.63;;;;;;;;;;4983417;28;20038;-48
2024/01/12 10:38:38;;;;;;;15.90;11.65;;;;;;;;;;4977708;28;20034;-47
2024/01/12 10:41:06;;;;;;;11.20;7.93;;;;;;;;;;4978629;28;20023;-50
2024/01/12 10:43:36;;;;;;;15.13;10.02;;;;;;;;;;4975744;28;20039;-50
2024/01/12 10:46:08;;;;;;;17.08;12.05;;;;;;;;;;4978875;28;20029;-46
2024/01/12 10:48:41;;;;;;;14.05;9.07;;;;;;;;;;4971286;28;20030;-49
2024/01/12 10:51:09;;;;;;;17.05;13.07;;;;;;;;;;4974717;28;20034;-50
2024/01/12 10:53:46;;;;;;;16.73;10.93;;;;;;;;;;4975988;28;20043;-49
2024/01/12 10:56:12;;;;;;;19.45;12.80;;;;;;;;;;4973142;28;20026;-49
2024/01/12 10:58:41;;;;;;;16.08;11.98;;;;;;;;;;4975866;28;20090;-47
2024/01/12 11:01:07;;;;;;;22.13;16.52;;;;;;;;;;4975816;28;20082;-46
2024/01/12 11:03:33;;;;;;;21.70;16.45;;;;;;;;;;4982079;28;20519;-48
2024/01/12 11:05:59;;;;;;;13.10;8.63;;;;;;;;;;4997275;28;20528;-45
2024/01/12 11:08:27;;;;;;;33.33;30.38;;;;;;;;;;4992157;28;20030;-49
2024/01/12 11:10:56;;;;;;;22.70;18.67;;;;;;;;;;4984312;28;20037;-50
2024/01/12 11:13:22;;;;;;;15.65;10.57;;;;;;;;;;4980370;28;20050;-53
2024/01/12 11:15:51;;;;;;;16.08;9.30;;;;;;;;;;4982758;28;20027;-46
2024/01/12 11:18:17;;;;;;;;;;;;;;;;;;4987209;28;20030;-49
2024/01/12 11:20:45;;;;;;;10.23;7.07;;;;;;;;;;4975985;28;20399;-47
2024/01/12 11:23:10;;;;;;;12.82;8.48;;;;;;;;;;4983520;28;20037;-47
2024/01/12 11:25:35;;;;;;;14.55;9.88;;;;;;;;;;4962783;28;20035;-46
2024/01/12 11:28:01;;;;;;;12.63;7.97;;;;;;;;;;4971510;28;20035;-47
2024/01/12 11:30:28;;;;;;;11.90;8.30;;;;;;;;;;4972545;28;20026;-45
2024/01/12 11:33:04;;;;;;;12.07;7.43;;;;;;;;;;4972793;28;20026;-45
2024/01/12 11:35:31;;;;;;;10.80;8.63;;;;;;;;;;4974334;28;20051;-51
2024/01/12 11:38:10;;;;;;;12.52;8.65;;;;;;;;;;4975212;28;20388;-49
2024/01/12 11:40:36;;;;;;;11.75;8.68;;;;;;;;;;4970596;28;20054;-49
2024/01/12 11:43:02;;;;;;;13.40;8.18;;;;;;;;;;4966110;28;20027;-48
2024/01/12 11:45:28;;;;;;;9.60;5.47;;;;;;;;;;4977965;28;20026;-48
2024/01/12 11:47:54;;;;;;;10.65;6.28;;;;;;;;;;4983252;28;20035;-50
2024/01/12 11:50:24;;;;;;;12.57;8.52;;;;;;;;;;4976053;28;20145;-48
2024/01/12 11:53:03;;;;;;;13.13;7.70;;;;;;;;;;4980872;28;20030;-52
2024/01/12 11:55:30;;;;;;;11.68;6.85;;;;;;;;;;4977167;28;20142;-47
2024/01/12 11:57:56;;;;;;;10.98;7.85;;;;;;;;;;4976693;28;20027;-47
2024/01/12 12:00:23;;;;;;;12.02;7.40;;;;;;;;;;5002877;28;20034;-48
2024/01/12 12:02:49;;;;;;;12.85;7.70;;;;;;;;;;4973980;28;20027;-49
2024/01/12 12:05:15;;;;;;;16.45;10.25;;;;;;;;;;4976215;28;20031;-47
2024/01/12 12:07:40;;;;;;;14.20;10.65;;;;;;;;;;4972888;28;20125;-47
2024/01/12 12:10:12;;;;;;;11.82;8.65;;;;;;;;;;4972977;28;20066;-46
2024/01/12 12:12:37;;;;;;;12.93;8.65;;;;;;;;;;4974143;28;20106;-48
2024/01/12 12:15:07;;;;;;;13.95;9.57;;;;;;;;;;4967082;28;20135;-47
2024/01/12 12:17:48;;;;;;;11.85;8.77;;;;;;;;;;4972522;28;20039;-49
2024/01/12 12:20:15;;;;;;;;;;;;;;;;;;4974784;28;20035;-47
2024/01/12 12:22:42;;;;;;;14.60;8.77;;;;;;;;;;4976097;28;19933;-49
2024/01/12 12:25:15;;;;;;;16.48;11.07;;;;;;;;;;4967426;28;20038;-49
2024/01/12 12:27:42;;;;;;;16.10;11.50;;;;;;;;;;4977586;28;20520;-48
2024/01/12 12:30:10;;;;;;;18.17;11.57;;;;;;;;;;4972553;28;20042;-48
2024/01/12 12:32:38;;;;;;;28.08;17.77;;;;;;;;;;4978907;28;20045;-50
2024/01/12 12:35:17;;;;;;;22.15;15.68;;;;;;;;;;4974306;28;20027;-45
2024/01/12 12:37:44;;;;;;;21.92;13.60;;;;;;;;;;4976677;28;20030;-49
2024/01/12 12:40:11;;;;;;;19.83;13.52;;;;;;;;;;4982096;28;20049;-46
2024/01/12 12:42:39;;;;;;;22.05;14.23;;;;;;;;;;4978536;28;20019;-48
2024/01/12 12:45:05;;;;;;;19.20;13.13;;;;;;;;;;4979067;28;20046;-48
2024/01/12 12:47:32;;;;;;;23.75;14.38;;;;;;;;;;4979612;28;20618;-49
2024/01/12 12:49:58;;;;;;;56.47;42.03;;;;;;;;;;4976229;28;20118;-49
2024/01/12 12:52:23;;;;;;;38.60;29.80;;;;;;;;;;4981780;28;20065;-49
2024/01/12 12:54:49;;;;;;;91.20;82.07;;;;;;;;;;4975062;28;20039;-48
2024/01/12 12:57:15;;;;;;;45.33;40.67;;;;;;;;;;5012537;28;20524;-49
2024/01/12 12:59:41;;;;;;;20.90;13.90;;;;;;;;;;5006063;28;20448;-48
2024/01/12 13:02:06;;;;;;;22.10;16.10;;;;;;;;;;4973798;28;20027;-45
2024/01/12 13:04:32;;;;;;;24.05;16.42;;;;;;;;;;4977169;28;20030;-47
2024/01/12 13:06:57;;;;;;;23.73;15.57;;;;;;;;;;4975898;28;20109;-51
2024/01/12 13:09:23;;;;;;;24.83;15.30;;;;;;;;;;4976812;28;20042;-48
2024/01/12 13:11:49;;;;;;;23.58;15.48;;;;;;;;;;4974998;28;20061;-47
2024/01/12 13:14:15;;;;;;;20.98;13.18;;;;;;;;;;4976571;28;20041;-48
2024/01/12 13:16:40;;;;;;;25.58;15.90;;;;;;;;;;4981071;28;20023;-48
2024/01/12 13:19:07;;;;;;;21.88;12.55;;;;;;;;;;4976492;28;20062;-45
2024/01/12 13:21:32;;;;;;;21.75;16.15;;;;;;;;;;4984249;28;20074;-46
2024/01/12 13:24:01;;;;;;;19.85;14.60;;;;;;;;;;4981168;28;20030;-48
2024/01/12 13:26:29;;;;;;;;;;;;;;;;;;4978036;28;20069;-48
2024/01/12 13:28:55;;;;;;;28.85;23.45;;;;;;;;;;4980183;28;19926;-49
2024/01/12 13:31:21;;;;;;;27.77;15.10;;;;;;;;;;4981086;28;20042;-47
2024/01/12 13:33:50;;;;;;;23.40;18.10;;;;;;;;;;4974279;28;20043;-51
2024/01/12 13:36:15;;;;;;;26.33;19.52;;;;;;;;;;4972695;28;20054;-48
2024/01/12 13:38:41;;;;;;;19.40;13.60;;;;;;;;;;4980134;28;20039;-51
2024/01/12 13:41:10;;;;;;;20.98;13.95;;;;;;;;;;4961172;28;20026;-44
2024/01/12 13:43:36;;;;;;;;;;;;;;;;;;4980841;28;20045;-47
2024/01/12 13:46:05;;;;;;;19.45;12.95;;;;;;;;;;4986986;28;19915;-49
2024/01/12 13:48:31;;;;;;;22.77;13.85;;;;;;;;;;4980220;28;20038;-47
2024/01/12 13:50:56;;;;;;;25.05;15.85;;;;;;;;;;4976230;28;20027;-48
2024/01/12 13:53:22;;;;;;;22.13;14.75;;;;;;;;;;4970927;28;20053;-51
2024/01/12 13:55:47;;;;;;;23.05;14.25;;;;;;;;;;5002848;28;20045;-49
2024/01/12 13:58:13;;;;;;;19.23;12.65;;;;;;;;;;4973988;28;20034;-47
2024/01/12 14:00:38;;;;;;;20.48;13.93;;;;;;;;;;4971496;28;20034;-48
2024/01/12 14:03:05;;;;;;;24.48;17.20;;;;;;;;;;4974682;28;20027;-50
2024/01/12 14:05:31;;;;;;;23.83;16.00;;;;;;;;;;4977317;28;20111;-48
2024/01/12 14:07:56;;;;;;;33.00;21.17;;;;;;;;;;4976923;28;20489;-49
2024/01/12 14:10:22;;;;;;;54.25;32.97;;;;;;;;;;4980797;28;20121;-46
2024/01/12 14:12:47;;;;;;;26.23;15.80;;;;;;;;;;4975672;28;20035;-50
2024/01/12 14:15:13;;;;;;;24.60;13.73;;;;;;;;;;4982423;28;20046;-48
2024/01/12 14:17:39;;;;;;;38.42;22.30;;;;;;;;;;4977211;28;20037;-45
2024/01/12 14:20:06;;;;;;;26.73;17.15;;;;;;;;;;4974820;28;20054;-47
2024/01/12 14:22:31;;;;;;;33.53;20.13;;;;;;;;;;4973297;28;20031;-48